Madison-on-the-Lake, Ohio
Current Conditions -  °F | °C
As of 8:53 AM on Monday 24 Nov 2014 (Local Time) from KHZY Reporting Station
Overcast Overcast  
Wind Chill: 60°   Ceiling: 4300
Heat Index: 60°   Visibility: 10mi
Dew Point: 53°   Wind: 17mph
Humidity: 78%   Direction: 200°SSW
Pressure: 29.32"   Gusts: 29mph
Location:  41.7879°N, 81.0546°W
Report Text: KHZY 241353Z AUTO 20015G25KT 10SM FEW023 SCT031 OVC043 16/12 A2932 RMK AO2 PK WND 19026/1301 RAE02 SLP927 P0000 T01560117
Loading
Personal Weather Stations






























Interactive Weather Map New forecast layout! Learn more

10-Day Weather Forecast

Advertisements
Track Severe Weather on mobile